首页
METAR-TAF:

METAR-TAF

机场 :

温贝托·德尔加多机场

里斯本, 葡萄牙

纬度: 38-46N, 经度: 009-08W, 海拔: 114米

当前天气观测

该预报发布于41分钟前的02:30 UTC
风速5节,风向西北
温度 10°C
湿度 82%
气压 1025 hPa
能见度10公里或以上
少量云层高于2400英尺
散云层高于4400英尺

METAR: LPPT 220230Z 32005KT 9999 FEW024 SCT044 10/07 Q1025

时间: 03:11 (03:11 UTC)

预报

该预报发布于4小时和11分钟前的23:00 UTC
预报有效从22日的 00点(UTC)到 23日的 06点(UTC)
风速3节,风向多变
能见度10公里或以上
1500米以下无云,无积雨云
成为
从 22日的 02点(UTC)到 22日的 04点(UTC)
风速5节,风向北转西北
能见度10公里或以上
少量云层高于1800英尺
散云层高于3500英尺
成为
从 22日的 10点(UTC)到 22日的 12点(UTC)
风速15节,风向北转西北
短暂存在
从 22日的 15点(UTC)到 22日的 18点(UTC)
能見度: 6000
多云层高于1800英尺
小雨
几率 30% :
短暂存在
从 22日的 15点(UTC)到 23日的 06点(UTC)
风速20节,风向北转西北,有时为30节阵风

TAF: LPPT 212300Z 2200/2306 VRB03KT CAVOK BECMG 2202/2204 33005KT 9999 FEW018 SCT035 BECMG 2210/2212 33015KT TEMPO 2215/2218 6000 -RA BKN018 PROB30 TEMPO 2215/2306 33020G30KT

超过4000个机场的气象观测和天气预报(METAR&TAF报告)。

可查询的气象台以黄色和红色小点在地图上表示。

将鼠标移到小点上方,可查看气象台名称。

然后点击查看天气观测和预报。

如需切换地图:点击带黑十字的绿色按钮放大地图;点击带横线的绿色按钮缩小地图;或者点击绿色箭头查看邻近地区的地图。


METAR-TAF: